Time;durP1;ratioP1;P1;durP2;ratioP2;P2;SDS_P1;SDS_P2;PMS_P1;PMS_P2;Temp;Humidity;BMP_temperature;BMP_pressure;BME280_temperature;BME280_humidity;BME280_pressure;Samples;Min_cycle;Max_cycle;Signal;HPM_P1;HPM_P2
2022/07/08 00:00:15;;;;;;;0.53;0.53;;;;;17.00;99348.00;;;;5099099;28;20518;-83
2022/07/08 00:02:42;;;;;;;0.50;0.50;;;;;16.80;99342.00;;;;5099281;28;20305;-83
2022/07/08 00:05:09;;;;;;;0.50;0.50;;;;;16.80;99346.00;;;;5117141;28;20683;-82
2022/07/08 00:07:36;;;;;;;1.50;0.83;;;;;16.80;99351.00;;;;5117533;28;20190;-83
2022/07/08 00:10:03;;;;;;;3.30;2.40;;;;;16.70;99355.00;;;;5099728;28;20549;-83
2022/07/08 00:12:30;;;;;;;1.90;1.33;;;;;16.70;99358.00;;;;5117810;28;20249;-82
2022/07/08 00:14:57;;;;;;;1.00;1.00;;;;;16.50;99356.00;;;;5117950;28;20186;-83
2022/07/08 00:17:24;;;;;;;0.80;0.80;;;;;16.70;99358.00;;;;5120086;28;20190;-82
2022/07/08 00:19:51;;;;;;;0.70;0.70;;;;;16.60;99360.00;;;;5125988;28;20262;-82
2022/07/08 00:22:18;;;;;;;0.40;0.40;;;;;16.50;99357.00;;;;5129290;28;20208;-82
2022/07/08 00:24:45;;;;;;;0.70;0.70;;;;;16.50;99353.00;;;;5128322;28;20218;-82
2022/07/08 00:27:14;;;;;;;0.67;0.67;;;;;16.50;99359.00;;;;5125838;28;20190;-79
2022/07/08 00:29:41;;;;;;;0.53;0.53;;;;;16.40;99363.00;;;;5131391;28;20257;-81
2022/07/08 00:32:08;;;;;;;3.10;0.70;;;;;16.30;99357.00;;;;5133658;28;20308;-80
2022/07/08 00:34:35;;;;;;;0.60;0.60;;;;;16.20;99368.00;;;;5130937;28;20205;-78
2022/07/08 00:37:02;;;;;;;0.90;0.90;;;;;16.10;99365.00;;;;5135279;28;20655;-79
2022/07/08 00:39:32;;;;;;;0.50;0.50;;;;;16.00;99372.00;;;;5123108;28;20209;-79
2022/07/08 00:41:59;;;;;;;0.80;0.70;;;;;16.00;99381.00;;;;5124489;28;20273;-81
2022/07/08 00:44:25;;;;;;;0.70;0.70;;;;;16.10;99378.00;;;;5101632;28;20218;-81
2022/07/08 00:46:52;;;;;;;0.93;0.93;;;;;16.00;99382.00;;;;5116281;28;20224;-81
2022/07/08 00:49:20;;;;;;;0.70;0.70;;;;;15.90;99382.00;;;;5116107;28;20225;-80
2022/07/08 00:51:47;;;;;;;0.63;0.63;;;;;15.90;99386.00;;;;5116066;28;20338;-80
2022/07/08 00:54:17;;;;;;;0.40;0.40;;;;;15.90;99387.00;;;;5098097;28;20587;-80
2022/07/08 00:56:44;;;;;;;0.90;0.90;;;;;15.90;99397.00;;;;5116212;28;20202;-80
2022/07/08 00:59:14;;;;;;;1.00;1.00;;;;;15.70;99390.00;;;;5097939;28;20644;-80
2022/07/08 01:01:41;;;;;;;0.53;0.53;;;;;15.60;99390.00;;;;5115850;28;20187;-80
2022/07/08 01:04:08;;;;;;;0.50;0.50;;;;;15.60;99390.00;;;;5115784;28;20213;-80
2022/07/08 01:06:35;;;;;;;0.87;0.80;;;;;15.50;99391.00;;;;5115854;28;20206;-81
2022/07/08 01:09:02;;;;;;;0.83;0.83;;;;;15.50;99383.00;;;;5098056;28;20229;-81
2022/07/08 01:11:29;;;;;;;0.80;0.80;;;;;15.60;99379.00;;;;5115624;28;20225;-81
2022/07/08 01:13:58;;;;;;;0.70;0.70;;;;;15.60;99385.00;;;;5115967;28;20224;-81
2022/07/08 01:16:25;;;;;;;0.60;0.60;;;;;15.50;99386.00;;;;5121997;28;20198;-82
2022/07/08 01:18:52;;;;;;;0.50;0.50;;;;;15.40;99379.00;;;;5122402;28;20208;-81
2022/07/08 01:21:22;;;;;;;0.60;0.60;;;;;15.30;99384.00;;;;5120731;28;20189;-80
2022/07/08 01:23:48;;;;;;;0.57;0.57;;;;;15.40;99388.00;;;;5115529;28;20227;-80
2022/07/08 01:26:16;;;;;;;0.43;0.43;;;;;15.50;99381.00;;;;5098051;28;20182;-81
2022/07/08 01:28:43;;;;;;;1.00;1.00;;;;;15.30;99390.00;;;;5115516;28;20235;-80
2022/07/08 01:31:10;;;;;;;0.80;0.80;;;;;15.20;99389.00;;;;5115466;28;20214;-80
2022/07/08 01:33:37;;;;;;;0.60;0.60;;;;;15.10;99402.00;;;;5115493;28;20189;-81
2022/07/08 01:36:05;;;;;;;0.50;0.50;;;;;15.20;99396.00;;;;5115669;28;20186;-80
2022/07/08 01:38:32;;;;;;;0.50;0.50;;;;;15.20;99394.00;;;;5115734;28;20194;-81
2022/07/08 01:40:59;;;;;;;1.00;1.00;;;;;15.10;99405.00;;;;5097722;28;20212;-81
2022/07/08 01:43:26;;;;;;;1.03;1.03;;;;;15.00;99407.00;;;;5115658;28;20662;-81
2022/07/08 01:45:53;;;;;;;0.50;0.50;;;;;14.90;99403.00;;;;5115356;28;20194;-81
2022/07/08 01:48:19;;;;;;;1.80;1.07;;;;;15.00;99401.00;;;;5115119;28;20232;-81
2022/07/08 01:50:46;;;;;;;0.60;0.60;;;;;15.00;99402.00;;;;5115104;28;20237;-81
2022/07/08 01:53:13;;;;;;;1.47;1.43;;;;;14.90;99418.00;;;;5115111;28;20198;-80
2022/07/08 01:55:43;;;;;;;0.60;0.60;;;;;15.00;99417.00;;;;5114920;28;20190;-81
2022/07/08 01:58:10;;;;;;;0.83;0.83;;;;;14.90;99421.00;;;;5114684;28;20230;-80
2022/07/08 02:00:39;;;;;;;0.50;0.50;;;;;14.90;99428.00;;;;5114826;28;20231;-79
2022/07/08 02:03:06;;;;;;;0.77;0.77;;;;;14.80;99445.00;;;;5096931;28;20213;-81
2022/07/08 02:05:34;;;;;;;0.50;0.50;;;;;14.60;99436.00;;;;5114800;28;20186;-81
2022/07/08 02:08:02;;;;;;;0.57;0.57;;;;;14.50;99433.00;;;;5114870;28;20661;-81
2022/07/08 02:12:18;;;;;;;0.50;0.50;;;;;14.50;99443.00;;;;5114808;28;20222;-80
2022/07/08 02:13:17;;;;;;;7.37;1.03;;;;;14.60;99437.00;;;;5114706;28;20206;-80
2022/07/08 02:15:44;;;;;;;0.63;0.63;;;;;14.60;99426.00;;;;5114754;28;20605;-81
2022/07/08 02:18:11;;;;;;;0.40;0.40;;;;;14.60;99428.00;;;;5114798;28;20214;-81
2022/07/08 02:20:38;;;;;;;0.57;0.57;;;;;14.60;99426.00;;;;5114719;28;20214;-81
2022/07/08 02:23:05;;;;;;;0.60;0.60;;;;;14.50;99436.00;;;;5114204;28;20280;-80
2022/07/08 02:25:35;;;;;;;0.70;0.70;;;;;14.70;99419.00;;;;5114782;28;20201;-81
2022/07/08 02:28:02;;;;;;;1.07;1.07;;;;;14.70;99431.00;;;;5114759;28;20196;-80
2022/07/08 02:30:29;;;;;;;0.80;0.80;;;;;14.70;99438.00;;;;5114496;28;20286;-79
2022/07/08 02:32:56;;;;;;;1.30;0.77;;;;;14.70;99430.00;;;;5114554;28;20251;-81
2022/07/08 02:35:23;;;;;;;0.60;0.60;;;;;14.70;99433.00;;;;5114499;28;20300;-80
2022/07/08 02:37:50;;;;;;;0.60;0.60;;;;;14.60;99437.00;;;;5114176;28;20297;-79
2022/07/08 02:40:17;;;;;;;0.50;0.50;;;;;14.70;99447.00;;;;5096413;28;20205;-81
2022/07/08 02:42:43;;;;;;;0.60;0.60;;;;;14.60;99447.00;;;;5114253;28;20278;-80
2022/07/08 02:45:10;;;;;;;0.90;0.90;;;;;14.70;99452.00;;;;5114283;28;20366;-81
2022/07/08 02:47:38;;;;;;;0.93;0.93;;;;;14.70;99443.00;;;;5114382;28;20199;-80
2022/07/08 02:50:06;;;;;;;1.07;1.07;;;;;14.80;99451.00;;;;5114113;28;20222;-81
2022/07/08 02:52:33;;;;;;;1.30;1.27;;;;;14.60;99451.00;;;;5114241;28;20223;-79
2022/07/08 02:55:02;;;;;;;0.60;0.60;;;;;14.70;99445.00;;;;5114191;28;20198;-83
2022/07/08 02:57:29;;;;;;;0.60;0.60;;;;;14.70;99445.00;;;;5113991;28;20214;-81
2022/07/08 02:59:56;;;;;;;0.70;0.70;;;;;14.50;99451.00;;;;5114133;28;20218;-81
2022/07/08 03:02:23;;;;;;;0.73;0.73;;;;;14.60;99457.00;;;;5114089;28;20194;-82
2022/07/08 03:04:53;;;;;;;0.60;0.60;;;;;14.50;99460.00;;;;5113975;28;20334;-81
2022/07/08 03:07:21;;;;;;;2.03;0.90;;;;;14.40;99459.00;;;;5113898;28;20209;-80
2022/07/08 03:09:48;;;;;;;0.70;0.70;;;;;14.50;99462.00;;;;5113685;28;20222;-80
2022/07/08 03:12:15;;;;;;;1.00;0.93;;;;;14.40;99466.00;;;;5113980;28;20190;-81
2022/07/08 03:14:41;;;;;;;1.43;1.37;;;;;14.40;99465.00;;;;5095879;28;20190;-80
2022/07/08 03:17:08;;;;;;;0.63;0.63;;;;;14.50;99468.00;;;;5113880;28;20838;-81
2022/07/08 03:19:35;;;;;;;0.50;0.50;;;;;14.40;99475.00;;;;5114018;28;20201;-80
2022/07/08 03:22:06;;;;;;;0.57;0.57;;;;;14.40;99477.00;;;;5096074;28;20282;-80
2022/07/08 03:24:32;;;;;;;1.17;1.07;;;;;14.40;99483.00;;;;5113642;28;20217;-80
2022/07/08 03:26:59;;;;;;;0.63;0.63;;;;;14.30;99479.00;;;;5113565;28;20532;-80
2022/07/08 03:29:26;;;;;;;0.50;0.50;;;;;14.30;99478.00;;;;5113527;28;20210;-80
2022/07/08 03:31:57;;;;;;;3.43;3.10;;;;;14.30;99483.00;;;;5113580;28;20683;-80
2022/07/08 03:34:23;;;;;;;0.73;0.73;;;;;14.30;99487.00;;;;5114600;28;20202;-80
2022/07/08 03:36:50;;;;;;;0.60;0.60;;;;;14.20;99484.00;;;;5117129;28;20213;-79
2022/07/08 03:39:18;;;;;;;0.50;0.50;;;;;14.20;99487.00;;;;5117504;28;20223;-80
2022/07/08 03:41:44;;;;;;;0.60;0.60;;;;;14.10;99493.00;;;;5117223;28;20205;-78
2022/07/08 03:44:11;;;;;;;0.90;0.90;;;;;13.90;99497.00;;;;5117040;28;20569;-79
2022/07/08 03:46:38;;;;;;;1.00;1.00;;;;;13.90;99500.00;;;;5117012;28;20182;-80
2022/07/08 03:49:07;;;;;;;5.40;1.17;;;;;13.80;99504.00;;;;5116961;28;20656;-81
2022/07/08 03:51:37;;;;;;;0.53;0.53;;;;;14.00;99509.00;;;;5116934;28;20210;-81
2022/07/08 03:54:04;;;;;;;0.97;0.97;;;;;14.00;99515.00;;;;5117061;28;20218;-81
2022/07/08 03:56:31;;;;;;;0.60;0.60;;;;;13.90;99512.00;;;;5116810;28;20194;-81
2022/07/08 03:58:58;;;;;;;0.93;0.93;;;;;13.90;99507.00;;;;5116870;28;20198;-82
2022/07/08 04:01:25;;;;;;;1.57;1.47;;;;;14.10;99512.00;;;;5116795;28;20186;-82
2022/07/08 04:03:52;;;;;;;0.60;0.60;;;;;14.10;99510.00;;;;5099026;28;20222;-81
2022/07/08 04:06:18;;;;;;;6.87;1.90;;;;;14.20;99521.00;;;;5116828;28;20197;-81
2022/07/08 04:08:48;;;;;;;1.50;1.40;;;;;14.10;99523.00;;;;5116658;28;20225;-81
2022/07/08 04:11:17;;;;;;;0.60;0.60;;;;;14.10;99510.00;;;;5116687;28;20217;-81
2022/07/08 04:13:45;;;;;;;0.50;0.50;;;;;14.00;99515.00;;;;5116713;28;20601;-81
2022/07/08 04:16:13;;;;;;;0.50;0.50;;;;;14.00;99515.00;;;;5116519;28;20273;-82
2022/07/08 04:18:40;;;;;;;1.13;1.03;;;;;14.00;99514.00;;;;5118038;28;20278;-79
2022/07/08 04:21:09;;;;;;;0.53;0.53;;;;;14.20;99513.00;;;;5123853;28;20190;-81
2022/07/08 04:23:37;;;;;;;0.60;0.60;;;;;14.30;99525.00;;;;5116521;28;20224;-82
2022/07/08 04:26:07;;;;;;;0.60;0.60;;;;;14.10;99515.00;;;;5116770;28;20224;-81
2022/07/08 04:28:34;;;;;;;0.93;0.93;;;;;14.00;99520.00;;;;5116734;28;20281;-79
2022/07/08 04:31:02;;;;;;;0.87;0.87;;;;;14.10;99513.00;;;;5116432;28;20657;-81
2022/07/08 04:33:29;;;;;;;0.60;0.60;;;;;14.00;99516.00;;;;5116358;28;20258;-82
2022/07/08 04:35:56;;;;;;;0.97;0.97;;;;;13.90;99514.00;;;;5098484;28;20217;-80
2022/07/08 04:38:22;;;;;;;0.80;0.80;;;;;14.00;99513.00;;;;5116294;28;20194;-80
2022/07/08 04:40:49;;;;;;;0.77;0.77;;;;;13.70;99515.00;;;;5116226;28;20186;-82
2022/07/08 04:43:16;;;;;;;0.67;0.67;;;;;13.80;99508.00;;;;5116095;28;20287;-82
2022/07/08 04:45:43;;;;;;;0.60;0.60;;;;;13.70;99502.00;;;;5115667;28;20278;-82
2022/07/08 04:48:10;;;;;;;0.50;0.50;;;;;13.80;99513.00;;;;5116148;28;20207;-82
2022/07/08 04:50:37;;;;;;;0.50;0.50;;;;;13.70;99508.00;;;;5097985;28;20723;-81
2022/07/08 04:53:05;;;;;;;0.50;0.50;;;;;13.80;99514.00;;;;5116039;28;20189;-80
2022/07/08 04:55:32;;;;;;;0.47;0.47;;;;;13.80;99518.00;;;;5115948;28;20206;-79
2022/07/08 04:58:01;;;;;;;1.30;1.23;;;;;13.80;99513.00;;;;5116194;28;20274;-82
2022/07/08 05:00:28;;;;;;;0.50;0.50;;;;;13.90;99529.00;;;;5115916;28;20652;-82
2022/07/08 05:02:58;;;;;;;1.63;0.80;;;;;14.00;99530.00;;;;5115866;28;20278;-84
2022/07/08 05:05:27;;;;;;;1.10;1.10;;;;;14.00;99526.00;;;;5115969;28;20190;-81
2022/07/08 05:07:56;;;;;;;2.00;1.37;;;;;14.00;99520.00;;;;5115973;28;20281;-81
2022/07/08 05:10:23;;;;;;;0.50;0.50;;;;;14.10;99524.00;;;;5115730;28;20221;-82
2022/07/08 05:12:50;;;;;;;2.90;1.60;;;;;14.00;99513.00;;;;5115910;28;20543;-82
2022/07/08 05:15:17;;;;;;;1.47;1.37;;;;;14.10;99520.00;;;;5116115;28;20194;-82
2022/07/08 05:17:44;;;;;;;0.50;0.50;;;;;14.30;99524.00;;;;5099083;28;20229;-82
2022/07/08 05:20:12;;;;;;;2.03;1.30;;;;;14.30;99530.00;;;;5116056;28;20840;-82
2022/07/08 05:22:39;;;;;;;0.90;0.87;;;;;14.30;99523.00;;;;5116186;28;20190;-82
2022/07/08 05:25:07;;;;;;;0.60;0.60;;;;;14.30;99526.00;;;;5118392;28;20200;-82
2022/07/08 05:27:35;;;;;;;1.73;1.63;;;;;14.20;99526.00;;;;5128481;28;20202;-81
2022/07/08 05:30:02;;;;;;;0.60;0.60;;;;;14.30;99529.00;;;;5129001;28;20288;-81
2022/07/08 05:32:32;;;;;;;0.50;0.50;;;;;14.40;99521.00;;;;5108089;28;20194;-81
2022/07/08 05:34:59;;;;;;;0.80;0.80;;;;;14.50;99522.00;;;;5127521;28;20198;-77
2022/07/08 05:37:26;;;;;;;0.60;0.60;;;;;14.50;99531.00;;;;5133226;28;20281;-80
2022/07/08 05:39:53;;;;;;;0.60;0.60;;;;;14.50;99534.00;;;;5126379;28;20198;-81
2022/07/08 05:42:22;;;;;;;0.60;0.60;;;;;14.80;99543.00;;;;5127426;28;20205;-79
2022/07/08 05:44:49;;;;;;;0.53;0.53;;;;;14.80;99540.00;;;;5109862;28;20240;-82
2022/07/08 05:47:16;;;;;;;2.13;1.57;;;;;14.80;99544.00;;;;5125852;28;20262;-82
2022/07/08 05:49:43;;;;;;;0.60;0.60;;;;;14.90;99541.00;;;;5121120;28;20300;-82
2022/07/08 05:52:10;;;;;;;0.53;0.53;;;;;14.80;99546.00;;;;5117485;28;20633;-84
2022/07/08 05:54:38;;;;;;;1.43;0.87;;;;;14.80;99548.00;;;;5115195;28;20202;-82
2022/07/08 05:57:06;;;;;;;0.53;0.53;;;;;14.80;99555.00;;;;5096372;28;20665;-83
2022/07/08 05:59:33;;;;;;;0.80;0.80;;;;;14.90;99561.00;;;;5114946;28;20621;-81
2022/07/08 06:02:00;;;;;;;0.50;0.50;;;;;15.00;99555.00;;;;5115984;28;20222;-82
2022/07/08 06:04:27;;;;;;;0.50;0.50;;;;;14.90;99556.00;;;;5115192;28;20279;-81
2022/07/08 06:06:56;;;;;;;1.13;1.00;;;;;14.90;99554.00;;;;5115053;28;20198;-82
2022/07/08 06:09:24;;;;;;;0.50;0.50;;;;;15.00;99552.00;;;;5114795;28;20221;-82
2022/07/08 06:11:53;;;;;;;0.70;0.70;;;;;15.20;99560.00;;;;5116075;28;20251;-83
2022/07/08 06:14:21;;;;;;;1.13;1.13;;;;;15.10;99569.00;;;;5115225;28;20641;-82
2022/07/08 06:16:48;;;;;;;1.23;1.23;;;;;15.10;99565.00;;;;5114720;28;20197;-82
2022/07/08 06:19:17;;;;;;;0.50;0.50;;;;;15.10;99562.00;;;;5115032;28;20201;-83
2022/07/08 06:21:46;;;;;;;0.50;0.50;;;;;15.10;99564.00;;;;5114666;28;20210;-86
2022/07/08 06:24:13;;;;;;;0.43;0.43;;;;;15.10;99571.00;;;;5114598;28;20520;-82
2022/07/08 06:26:40;;;;;;;0.70;0.70;;;;;15.20;99571.00;;;;5114693;28;20637;-82
2022/07/08 06:29:09;;;;;;;4.47;1.33;;;;;15.30;99569.00;;;;5114762;28;20225;-87
2022/07/08 06:31:38;;;;;;;0.40;0.40;;;;;15.40;99573.00;;;;5114591;28;20189;-79
2022/07/08 06:34:05;;;;;;;0.73;0.73;;;;;15.40;99573.00;;;;5114313;28;20697;-79
2022/07/08 06:36:32;;;;;;;0.80;0.80;;;;;15.40;99580.00;;;;5114287;28;20198;-81
2022/07/08 06:38:59;;;;;;;0.60;0.60;;;;;15.50;99578.00;;;;5114375;28;20209;-81
2022/07/08 06:41:26;;;;;;;0.90;0.90;;;;;15.60;99584.00;;;;5096704;28;20515;-87
2022/07/08 06:43:53;;;;;;;0.60;0.60;;;;;15.50;99582.00;;;;5114604;28;20261;-83
2022/07/08 06:46:19;;;;;;;1.60;1.50;;;;;15.60;99571.00;;;;5114549;28;20304;-83
2022/07/08 06:48:47;;;;;;;0.50;0.50;;;;;15.70;99583.00;;;;5114324;28;20636;-82
2022/07/08 06:51:14;;;;;;;0.50;0.50;;;;;15.80;99580.00;;;;5114337;28;20194;-83
2022/07/08 06:56:28;;;;;;;0.40;0.40;;;;;15.90;99579.00;;;;5114215;28;20273;-83
2022/07/08 06:58:55;;;;;;;0.47;0.47;;;;;15.90;99578.00;;;;5114396;28;20222;-81
2022/07/08 07:01:22;;;;;;;0.50;0.50;;;;;16.00;99583.00;;;;5114044;28;20495;-81
2022/07/08 07:03:49;;;;;;;0.60;0.60;;;;;16.10;99584.00;;;;5114186;28;20194;-83
2022/07/08 07:06:18;;;;;;;0.73;0.73;;;;;16.10;99592.00;;;;5114345;28;20218;-80
2022/07/08 07:08:47;;;;;;;0.70;0.70;;;;;16.10;99592.00;;;;5115808;28;20281;-83
2022/07/08 07:11:17;;;;;;;0.90;0.90;;;;;16.20;99599.00;;;;5117701;28;20208;-82
2022/07/08 07:13:45;;;;;;;0.97;0.87;;;;;16.50;99592.00;;;;5117776;28;20186;-82
2022/07/08 07:16:12;;;;;;;0.40;0.40;;;;;16.50;99588.00;;;;5117810;28;20202;-82
2022/07/08 07:18:39;;;;;;;0.67;0.67;;;;;16.60;99603.00;;;;5117751;28;20245;-82
2022/07/08 07:21:07;;;;;;;0.50;0.50;;;;;16.80;99601.00;;;;5117557;28;20201;-80
2022/07/08 07:23:36;;;;;;;0.83;0.83;;;;;17.00;99592.00;;;;5117487;28;20194;-83
2022/07/08 07:26:03;;;;;;;0.50;0.50;;;;;17.00;99604.00;;;;5117388;28;20218;-80
2022/07/08 07:28:30;;;;;;;0.53;0.53;;;;;17.30;99601.00;;;;5117458;28;20292;-83
2022/07/08 07:30:57;;;;;;;0.50;0.50;;;;;17.60;99608.00;;;;5117131;28;20624;-82
2022/07/08 07:33:26;;;;;;;0.60;0.60;;;;;17.60;99601.00;;;;5099656;28;20222;-89
2022/07/08 07:35:53;;;;;;;0.90;0.90;;;;;17.80;99606.00;;;;5117433;28;20254;-89
2022/07/08 07:38:21;;;;;;;0.60;0.60;;;;;18.00;99603.00;;;;5117218;28;20222;-83
2022/07/08 07:40:47;;;;;;;0.43;0.43;;;;;18.00;99610.00;;;;5117360;28;20214;-85
2022/07/08 07:43:14;;;;;;;0.40;0.40;;;;;18.20;99606.00;;;;5099292;28;20536;-79
2022/07/08 07:45:41;;;;;;;0.50;0.50;;;;;18.20;99612.00;;;;5117023;28;20193;-85
2022/07/08 07:48:08;;;;;;;0.70;0.70;;;;;18.20;99615.00;;;;5117210;28;20200;-80
2022/07/08 07:50:35;;;;;;;0.50;0.50;;;;;17.90;99613.00;;;;5116934;28;20281;-82
2022/07/08 07:53:04;;;;;;;1.50;1.37;;;;;17.90;99602.00;;;;5117241;28;20186;-83
2022/07/08 07:55:31;;;;;;;0.53;0.53;;;;;17.90;99600.00;;;;5116891;28;20660;-83
2022/07/08 07:57:58;;;;;;;1.33;0.80;;;;;18.00;99605.00;;;;5116834;28;20225;-89
2022/07/08 08:00:26;;;;;;;0.50;0.50;;;;;18.30;99604.00;;;;5117386;28;20198;-85
2022/07/08 08:02:53;;;;;;;0.40;0.40;;;;;18.40;99608.00;;;;5099043;28;20636;-84
2022/07/08 08:05:20;;;;;;;0.50;0.50;;;;;18.40;99618.00;;;;5116868;28;20206;-84
2022/07/08 08:07:46;;;;;;;0.70;0.70;;;;;18.50;99612.00;;;;5119785;28;20507;-82
2022/07/08 08:10:14;;;;;;;0.50;0.50;;;;;18.50;99614.00;;;;5118821;28;20244;-88
2022/07/08 08:12:42;;;;;;;0.43;0.43;;;;;18.50;99616.00;;;;5116543;28;20331;-81
2022/07/08 08:15:09;;;;;;;0.83;0.83;;;;;18.40;99619.00;;;;5117130;28;20280;-84
2022/07/08 08:17:37;;;;;;;0.70;0.70;;;;;18.50;99621.00;;;;5118295;28;20194;-88
2022/07/08 08:20:05;;;;;;;0.60;0.60;;;;;18.30;99623.00;;;;5116024;28;20290;-86
2022/07/08 08:22:32;;;;;;;0.93;0.93;;;;;18.10;99625.00;;;;5116710;28;20226;-85
2022/07/08 08:24:59;;;;;;;0.40;0.40;;;;;18.20;99617.00;;;;5116698;28;20198;-84
2022/07/08 08:27:26;;;;;;;0.60;0.60;;;;;18.30;99618.00;;;;5117492;28;20194;-85
2022/07/08 08:29:53;;;;;;;0.50;0.50;;;;;18.40;99616.00;;;;5116727;28;20230;-84
2022/07/08 08:32:20;;;;;;;3.50;1.27;;;;;18.40;99621.00;;;;5117102;28;20288;-85
2022/07/08 08:34:47;;;;;;;0.87;0.87;;;;;18.40;99614.00;;;;5116968;28;20298;-81
2022/07/08 08:37:17;;;;;;;0.50;0.50;;;;;18.40;99615.00;;;;5116285;28;20194;-78
2022/07/08 08:39:43;;;;;;;0.50;0.50;;;;;18.40;99619.00;;;;5116354;28;20208;-82
2022/07/08 08:42:15;;;;;;;0.43;0.43;;;;;18.30;99627.00;;;;5116088;28;20669;-81
2022/07/08 08:44:42;;;;;;;0.40;0.40;;;;;18.30;99613.00;;;;5116111;28;20198;-81
2022/07/08 08:47:11;;;;;;;2.37;1.80;;;;;18.20;99615.00;;;;5116020;28;20330;-81
2022/07/08 08:49:41;;;;;;;0.40;0.40;;;;;18.00;99619.00;;;;5116000;28;20232;-83
2022/07/08 08:52:10;;;;;;;1.40;1.30;;;;;18.30;99615.00;;;;5116032;28;20629;-82
2022/07/08 08:54:38;;;;;;;1.33;0.80;;;;;18.60;99614.00;;;;5115982;28;20221;-84
2022/07/08 08:57:08;;;;;;;0.50;0.50;;;;;18.90;99608.00;;;;5115991;28;20220;-82
2022/07/08 08:59:38;;;;;;;0.87;0.87;;;;;19.00;99605.00;;;;5115913;28;20214;-82
2022/07/08 09:02:05;;;;;;;0.60;0.60;;;;;19.10;99607.00;;;;5115865;28;20350;-84
2022/07/08 09:04:32;;;;;;;8.93;1.23;;;;;19.10;99610.00;;;;5115846;28;20254;-80
2022/07/08 09:07:00;;;;;;;3.20;1.67;;;;;19.10;99609.00;;;;5115606;28;20218;-81
2022/07/08 09:09:27;;;;;;;0.53;0.53;;;;;19.10;99617.00;;;;5115679;28;20217;-84
2022/07/08 09:11:54;;;;;;;0.63;0.63;;;;;18.90;99609.00;;;;5115627;28;20194;-81
2022/07/08 09:14:22;;;;;;;0.83;0.83;;;;;19.00;99611.00;;;;5115716;28;20200;-85
2022/07/08 09:17:09;;;;;;;0.40;0.40;;;;;18.90;99615.00;;;;5115586;28;20209;-80
2022/07/08 09:19:36;;;;;;;0.90;0.90;;;;;18.80;99614.00;;;;5116933;28;20237;-86
2022/07/08 09:22:05;;;;;;;0.70;0.70;;;;;18.70;99606.00;;;;5116247;28;20273;-83
2022/07/08 09:24:32;;;;;;;0.70;0.70;;;;;19.00;99609.00;;;;5116925;28;20198;-81
2022/07/08 09:27:04;;;;;;;0.40;0.40;;;;;19.10;99607.00;;;;5116379;28;20586;-86
2022/07/08 09:29:33;;;;;;;0.50;0.50;;;;;19.40;99607.00;;;;5097904;28;20390;-86
2022/07/08 09:32:12;;;;;;;0.70;0.70;;;;;19.80;99611.00;;;;5115882;28;20543;-85
2022/07/08 09:34:41;;;;;;;0.50;0.50;;;;;19.80;99622.00;;;;5115287;28;20221;-84
2022/07/08 09:37:12;;;;;;;0.67;0.67;;;;;19.60;99629.00;;;;5115292;28;20194;-81
2022/07/08 09:39:39;;;;;;;0.50;0.50;;;;;19.50;99619.00;;;;5115208;28;20219;-78
2022/07/08 09:42:07;;;;;;;1.37;1.27;;;;;19.70;99621.00;;;;5115377;28;20269;-88
2022/07/08 09:44:35;;;;;;;0.50;0.50;;;;;19.50;99626.00;;;;5115413;28;20221;-84
2022/07/08 09:47:08;;;;;;;0.50;0.50;;;;;19.40;99619.00;;;;5115150;28;20202;-85
2022/07/08 09:49:35;;;;;;;0.60;0.60;;;;;19.50;99625.00;;;;5097522;28;20668;-85
2022/07/08 09:52:04;;;;;;;0.67;0.67;;;;;19.50;99614.00;;;;5115163;28;20216;-82
2022/07/08 09:54:31;;;;;;;0.50;0.50;;;;;19.40;99609.00;;;;5097221;28;20267;-82
2022/07/08 09:57:00;;;;;;;0.60;0.60;;;;;19.50;99613.00;;;;5114788;28;20285;-80
2022/07/08 09:59:30;;;;;;;0.40;0.40;;;;;19.60;99617.00;;;;5114956;28;20231;-81
2022/07/08 10:01:58;;;;;;;1.43;1.00;;;;;19.90;99603.00;;;;5114785;28;20204;-81
2022/07/08 10:04:25;;;;;;;0.50;0.50;;;;;20.00;99621.00;;;;5114996;28;20665;-82
2022/07/08 10:06:53;;;;;;;0.30;0.30;;;;;19.90;99601.00;;;;5114969;28;20721;-84
2022/07/08 10:09:22;;;;;;;2.63;1.33;;;;;20.00;99620.00;;;;5114674;28;20221;-88
2022/07/08 10:11:50;;;;;;;0.50;0.50;;;;;19.90;99614.00;;;;5115375;28;20277;-90
2022/07/08 10:14:18;;;;;;;0.43;0.43;;;;;19.90;99622.00;;;;5115401;28;20190;-80
2022/07/08 10:16:47;;;;;;;0.40;0.40;;;;;20.00;99603.00;;;;5097173;28;20233;-81
2022/07/08 10:19:17;;;;;;;0.67;0.67;;;;;20.00;99621.00;;;;5114792;28;20202;-82
2022/07/08 10:21:50;;;;;;;0.83;0.80;;;;;19.80;99617.00;;;;5115005;28;20190;-82
2022/07/08 10:24:22;;;;;;;0.50;0.50;;;;;19.50;99628.00;;;;5114523;28;20182;-80
2022/07/08 10:26:50;;;;;;;1.67;0.90;;;;;19.40;99614.00;;;;5114794;28;20190;-81
2022/07/08 10:29:16;;;;;;;1.43;1.37;;;;;19.50;99618.00;;;;5096623;28;20696;-81
2022/07/08 10:31:47;;;;;;;0.50;0.50;;;;;19.80;99616.00;;;;5115977;28;20208;-84
2022/07/08 10:34:17;;;;;;;0.50;0.50;;;;;19.90;99610.00;;;;5124156;28;20645;-80
2022/07/08 10:36:50;;;;;;;0.70;0.70;;;;;20.20;99615.00;;;;5109825;28;20198;-82
2022/07/08 10:39:25;;;;;;;0.73;0.73;;;;;20.20;99616.00;;;;5119844;28;20293;-82
2022/07/08 10:42:01;;;;;;;0.40;0.40;;;;;20.20;99611.00;;;;5122823;28;20216;-82
2022/07/08 10:44:50;;;;;;;1.20;1.17;;;;;20.80;99609.00;;;;5125613;28;20228;-82
2022/07/08 10:47:23;;;;;;;0.93;0.93;;;;;21.20;99608.00;;;;5125714;28;20343;-80
2022/07/08 10:49:50;;;;;;;0.50;0.50;;;;;21.50;99604.00;;;;5128472;28;20201;-82
2022/07/08 10:52:32;;;;;;;2.60;0.93;;;;;21.70;99606.00;;;;5118116;28;20206;-82
2022/07/08 10:55:10;;;;;;;0.67;0.67;;;;;21.60;99609.00;;;;5122410;28;20222;-86
2022/07/08 10:57:38;;;;;;;0.50;0.50;;;;;21.70;99610.00;;;;5116604;28;20212;-79
2022/07/08 11:00:10;;;;;;;0.70;0.70;;;;;21.50;99607.00;;;;5114244;28;20557;-83
2022/07/08 11:02:42;;;;;;;0.53;0.53;;;;;21.50;99609.00;;;;5114260;28;20231;-86
2022/07/08 11:05:35;;;;;;;0.70;0.70;;;;;21.60;99612.00;;;;5114237;28;20190;-80
2022/07/08 11:08:21;;;;;;;0.45;0.45;;;;;21.80;99609.00;;;;5114101;28;20220;-77
2022/07/08 11:10:55;;;;;;;0.52;0.52;;;;;21.70;99609.00;;;;5114135;28;20255;-82
2022/07/08 11:13:24;;;;;;;0.47;0.47;;;;;21.50;99606.00;;;;5114266;28;20225;-83
2022/07/08 11:15:51;;;;;;;0.40;0.40;;;;;21.60;99598.00;;;;5114266;28;20202;-82
2022/07/08 11:18:22;;;;;;;3.93;0.60;;;;;21.70;99595.00;;;;5116952;28;20245;-84
2022/07/08 11:20:50;;;;;;;0.40;0.40;;;;;22.20;99601.00;;;;5117725;28;20593;-80
2022/07/08 11:23:20;;;;;;;0.45;0.45;;;;;22.30;99600.00;;;;5117387;28;20193;-82
2022/07/08 11:25:55;;;;;;;0.55;0.55;;;;;22.40;99593.00;;;;5118471;28;20237;-81
2022/07/08 11:28:25;;;;;;;0.63;0.63;;;;;22.60;99593.00;;;;5114243;28;20210;-89
2022/07/08 11:30:53;;;;;;;0.60;0.60;;;;;22.50;99594.00;;;;5114272;28;20217;-80
2022/07/08 11:33:19;;;;;;;0.80;0.80;;;;;22.40;99597.00;;;;5095859;28;20304;-82
2022/07/08 11:35:46;;;;;;;0.60;0.60;;;;;22.40;99598.00;;;;5113657;28;20209;-80
2022/07/08 11:38:35;;;;;;;0.50;0.50;;;;;22.80;99593.00;;;;5095637;28;20281;-79
2022/07/08 11:41:01;;;;;;;0.40;0.40;;;;;23.40;99599.00;;;;5114758;28;20231;-81
2022/07/08 11:43:31;;;;;;;0.50;0.50;;;;;23.50;99599.00;;;;5113874;28;20641;-80
2022/07/08 11:46:00;;;;;;;0.93;0.85;;;;;23.20;99602.00;;;;5115904;28;20218;-80
2022/07/08 11:48:36;;;;;;;0.90;0.82;;;;;23.30;99593.00;;;;5114514;28;20193;-80
2022/07/08 11:51:03;;;;;;;0.55;0.55;;;;;23.20;99589.00;;;;5113773;28;20560;-76
2022/07/08 11:53:33;;;;;;;0.38;0.38;;;;;23.60;99588.00;;;;5113521;28;20214;-76
2022/07/08 11:55:59;;;;;;;0.60;0.60;;;;;24.10;99585.00;;;;5115177;28;20196;-74
2022/07/08 11:58:26;;;;;;;0.60;0.60;;;;;23.70;99574.00;;;;5116972;28;20257;-74
2022/07/08 12:00:55;;;;;;;0.52;0.52;;;;;24.00;99570.00;;;;5116537;28;20217;-74
2022/07/08 12:03:26;;;;;;;0.50;0.50;;;;;24.40;99574.00;;;;5116680;28;20206;-75
2022/07/08 12:05:55;;;;;;;0.60;0.60;;;;;24.30;99575.00;;;;5116614;28;20190;-75
2022/07/08 12:08:22;;;;;;;0.68;0.68;;;;;24.60;99575.00;;;;5116770;28;20190;-74
2022/07/08 12:10:49;;;;;;;0.60;0.60;;;;;24.70;99572.00;;;;5116467;28;20539;-75
2022/07/08 12:13:16;;;;;;;0.40;0.40;;;;;24.90;99563.00;;;;5116494;28;20597;-77
2022/07/08 12:15:44;;;;;;;0.40;0.40;;;;;24.90;99566.00;;;;5116537;28;20244;-75
2022/07/08 12:18:13;;;;;;;0.60;0.60;;;;;24.90;99562.00;;;;5116719;28;20531;-74
2022/07/08 12:20:41;;;;;;;0.70;0.70;;;;;25.00;99560.00;;;;5116392;28;20633;-74
2022/07/08 12:23:08;;;;;;;0.40;0.40;;;;;24.90;99578.00;;;;5116425;28;20653;-75
2022/07/08 12:25:48;;;;;;;0.50;0.50;;;;;25.10;99566.00;;;;5116295;28;20195;-73